Time;durP1;ratioP1;P1;durP2;ratioP2;P2;SDS_P1;SDS_P2;PMS_P1;PMS_P2;Temp;Humidity;BMP_temperature;BMP_pressure;BME280_temperature;BME280_humidity;BME280_pressure;Samples;Min_cycle;Max_cycle;Signal;HPM_P1;HPM_P2
2022/09/05 00:01:47;;;;;;;3.38;1.10;;;;;;;15.97;80.13;102306.31;5012652;28;20187;-53
2022/09/05 00:04:37;;;;;;;2.30;0.90;;;;;;;15.86;80.62;102304.00;5013862;28;20239;-53
2022/09/05 00:07:33;;;;;;;2.38;1.08;;;;;;;15.88;80.63;102303.09;5017085;28;20227;-51
2022/09/05 00:10:08;;;;;;;2.60;1.00;;;;;;;15.93;80.36;102299.25;5016195;28;20237;-52
2022/09/05 00:12:35;;;;;;;4.18;1.17;;;;;;;15.84;80.69;102308.59;5015529;28;20218;-46
2022/09/05 00:15:00;;;;;;;1.75;1.15;;;;;;;16.00;80.21;102305.31;5017434;28;20652;-49
2022/09/05 00:17:45;;;;;;;3.17;0.93;;;;;;;15.94;80.31;102303.75;5014949;28;20204;-46
2022/09/05 00:20:16;;;;;;;2.78;1.17;;;;;;;15.97;80.65;102298.22;5020220;28;20545;-48
2022/09/05 00:22:44;;;;;;;1.95;1.10;;;;;;;16.09;80.43;102295.97;5024444;28;20208;-48
2022/09/05 00:25:33;;;;;;;2.95;1.25;;;;;;;15.99;80.36;102301.75;5013100;28;20172;-46
2022/09/05 00:28:26;;;;;;;3.72;1.10;;;;;;;15.87;80.81;102302.19;5020426;28;20735;-48
2022/09/05 00:31:05;;;;;;;1.63;0.85;;;;;;;15.89;81.33;102302.13;5016093;28;20181;-49
2022/09/05 00:33:47;;;;;;;1.58;0.88;;;;;;;15.88;81.53;102308.50;5022482;28;20568;-47
2022/09/05 00:36:48;;;;;;;1.23;0.90;;;;;;;15.93;81.64;102299.25;5016250;28;20201;-46
2022/09/05 00:39:34;;;;;;;3.13;1.10;;;;;;;15.84;81.62;102307.72;5019217;28;20176;-46
2022/09/05 00:42:07;;;;;;;2.17;1.10;;;;;;;15.85;82.34;102304.06;5017223;28;20335;-47
2022/09/05 00:44:37;;;;;;;0.73;0.73;;;;;;;15.84;82.36;102300.47;5022353;28;20276;-47
2022/09/05 00:47:07;;;;;;;2.63;1.10;;;;;;;15.83;82.85;102300.53;5013858;28;20228;-47
2022/09/05 00:49:35;;;;;;;2.17;1.10;;;;;;;15.82;82.83;102312.28;5018348;28;20605;-46
2022/09/05 00:52:11;;;;;;;3.08;1.23;;;;;;;15.82;82.91;102299.66;5017834;28;20481;-46
2022/09/05 00:55:03;;;;;;;2.92;1.20;;;;;;;15.77;83.33;102306.19;5024728;28;20172;-47
2022/09/05 00:57:49;;;;;;;1.65;1.05;;;;;;;15.89;83.44;102311.13;5022543;28;20212;-47
2022/09/05 01:00:21;;;;;;;2.95;1.20;;;;;;;15.77;83.59;102307.06;5018116;28;20193;-47
2022/09/05 01:03:11;;;;;;;4.95;0.98;;;;;;;15.79;84.02;102316.00;5021973;28;20315;-48
2022/09/05 01:05:58;;;;;;;8.52;1.52;;;;;;;15.80;84.47;102306.94;5021094;28;20208;-46
2022/09/05 01:08:44;;;;;;;3.08;1.10;;;;;;;15.76;84.61;102318.78;5011759;28;20867;-47
2022/09/05 01:11:31;;;;;;;3.88;0.95;;;;;;;15.79;84.75;102315.13;5025487;28;20657;-45
2022/09/05 01:14:05;;;;;;;4.63;1.20;;;;;;;15.68;85.13;102309.16;5014350;28;20318;-46
2022/09/05 01:16:53;;;;;;;4.50;1.23;;;;;;;15.71;85.41;102309.06;5021365;28;20300;-47
2022/09/05 01:19:29;;;;;;;4.43;1.45;;;;;;;15.74;85.53;102300.88;5021716;28;20622;-46
2022/09/05 01:22:04;;;;;;;4.28;1.38;;;;;;;15.70;85.52;102307.28;5016811;28;20184;-46
2022/09/05 01:24:54;;;;;;;2.22;1.10;;;;;;;15.64;85.91;102303.00;5018973;28;20219;-48
2022/09/05 01:27:44;;;;;;;2.55;1.20;;;;;;;15.72;85.59;102305.44;5022732;28;20291;-47
2022/09/05 01:30:14;;;;;;;4.90;1.23;;;;;;;15.69;86.16;102305.53;5012535;28;20196;-46
2022/09/05 01:32:57;;;;;;;4.75;1.15;;;;;;;15.63;86.54;102303.94;5027055;28;20169;-47
2022/09/05 01:36:04;;;;;;;3.60;1.33;;;;;;;15.62;86.54;102305.75;5018832;28;20191;-47
2022/09/05 01:38:41;;;;;;;2.05;1.20;;;;;;;15.62;86.64;102294.06;5023467;28;20200;-46
2022/09/05 01:41:15;;;;;;;2.72;1.00;;;;;;;15.53;87.00;102295.28;5017498;28;20191;-48
2022/09/05 01:43:49;;;;;;;4.20;1.23;;;;;;;15.61;86.94;102297.69;5027311;28;20220;-47
2022/09/05 01:46:21;;;;;;;1.92;1.05;;;;;;;15.55;86.95;102298.81;5019402;28;20255;-47
2022/09/05 01:48:56;;;;;;;2.08;1.02;;;;;;;15.56;87.10;102294.28;5022218;28;20211;-47
2022/09/05 01:51:28;;;;;;;2.72;1.00;;;;;;;15.59;86.88;102292.38;5019936;28;20172;-46
2022/09/05 01:54:23;;;;;;;4.88;1.17;;;;;;;15.55;86.84;102298.81;5016311;28;20188;-45
2022/09/05 01:57:11;;;;;;;4.15;1.70;;;;;;;15.61;86.69;102295.00;5022665;28;20204;-46
2022/09/05 01:59:46;;;;;;;3.13;1.42;;;;;;;15.50;87.20;102300.78;5017839;28;20575;-47
2022/09/05 02:02:37;;;;;;;3.30;1.35;;;;;;;15.43;87.32;102297.41;5016137;28;20670;-45
2022/09/05 02:05:18;;;;;;;4.72;1.17;;;;;;;15.47;87.20;102289.22;5013428;28;20192;-46
2022/09/05 02:08:14;;;;;;;3.90;1.50;;;;;;;15.47;87.13;102294.63;5016129;28;20247;-46
2022/09/05 02:10:59;;;;;;;5.63;1.55;;;;;;;15.39;87.29;102295.78;5016463;28;20876;-46
2022/09/05 02:13:45;;;;;;;7.03;1.20;;;;;;;15.40;87.36;102292.13;5016644;28;20194;-46
2022/09/05 02:16:23;;;;;;;9.15;1.38;;;;;;;15.45;86.96;102286.56;5023597;28;20219;-46
2022/09/05 02:18:55;;;;;;;4.68;1.52;;;;;;;15.50;87.29;102284.56;5025118;28;20230;-45
2022/09/05 02:21:40;;;;;;;2.45;1.15;;;;;;;15.43;86.88;102286.59;5024172;28;20184;-46
2022/09/05 02:24:12;;;;;;;6.72;1.50;;;;;;;15.38;87.00;102285.91;5024131;28;20220;-45
2022/09/05 02:26:55;;;;;;;2.00;1.30;;;;;;;15.34;87.53;102292.34;5017106;28;20266;-49
2022/09/05 02:29:33;;;;;;;4.90;1.48;;;;;;;15.30;87.67;102292.50;5015782;28;20184;-50
2022/09/05 02:32:08;;;;;;;3.47;1.10;;;;;;;15.29;87.78;102294.31;5019688;28;20199;-49
2022/09/05 02:34:44;;;;;;;3.85;1.05;;;;;;;15.43;87.80;102289.31;5019367;28;20184;-51
2022/09/05 02:37:44;;;;;;;3.25;1.27;;;;;;;15.39;87.70;102286.78;5020048;28;20254;-49
2022/09/05 02:40:16;;;;;;;2.80;1.13;;;;;;;15.24;87.76;102296.31;5020364;28;20212;-49
2022/09/05 02:43:14;;;;;;;4.25;1.13;;;;;;;15.13;88.50;102290.38;5018144;28;20216;-49
2022/09/05 02:45:46;;;;;;;1.98;1.25;;;;;;;15.09;88.81;102292.31;5018497;28;20221;-51
2022/09/05 02:48:27;;;;;;;4.07;1.48;;;;;;;15.13;88.79;102287.66;5018030;28;20184;-49
2022/09/05 02:51:03;;;;;;;3.05;1.50;;;;;;;15.08;88.97;102290.53;5015360;28;20192;-50
2022/09/05 02:53:31;;;;;;;6.35;1.42;;;;;;;15.03;89.25;102279.00;5012294;28;20275;-51
2022/09/05 02:56:15;;;;;;;3.90;1.23;;;;;;;15.00;89.50;102273.72;5014804;28;20210;-49
2022/09/05 02:59:03;;;;;;;1.75;1.15;;;;;;;15.00;89.66;102280.00;5015372;28;20180;-50
2022/09/05 03:01:50;;;;;;;3.85;1.23;;;;;;;14.87;89.90;102270.56;5014564;28;20184;-50
2022/09/05 03:04:47;;;;;;;1.67;1.27;;;;;;;14.82;90.35;102269.81;5016928;28;20212;-49
2022/09/05 03:07:50;;;;;;;3.53;1.40;;;;;;;14.75;90.74;102277.22;5013246;28;20714;-50
2022/09/05 03:10:49;;;;;;;4.63;1.45;;;;;;;14.73;90.98;102264.72;5015237;28;20556;-50
2022/09/05 03:13:42;;;;;;;6.07;1.67;;;;;;;14.64;91.17;102260.50;5014435;28;20199;-50
2022/09/05 03:16:29;;;;;;;4.10;1.42;;;;;;;14.68;91.24;102272.97;5017999;28;20219;-50
2022/09/05 03:19:14;;;;;;;1.58;1.27;;;;;;;14.60;91.14;102272.31;5010405;28;20189;-50
2022/09/05 03:22:12;;;;;;;2.50;1.25;;;;;;;14.68;91.07;102272.09;5017606;28;20185;-48
2022/09/05 03:25:19;;;;;;;1.80;1.27;;;;;;;14.73;90.93;102275.50;5011577;28;20195;-51
2022/09/05 03:28:18;;;;;;;7.43;1.58;;;;;;;14.69;90.54;102269.31;5019981;28;20180;-50
2022/09/05 03:31:17;;;;;;;2.92;1.70;;;;;;;14.59;90.63;102281.34;5022096;28;20180;-49
2022/09/05 03:34:21;;;;;;;2.60;1.63;;;;;;;14.58;90.64;102277.78;5027363;28;20628;-50
2022/09/05 03:36:52;;;;;;;5.32;1.85;;;;;;;14.56;90.35;102271.56;4976353;28;20238;-50
2022/09/05 03:39:45;;;;;;;1.98;1.60;;;;;;;14.59;90.33;102282.22;5017766;28;20337;-49
2022/09/05 03:42:16;;;;;;;3.13;1.55;;;;;;;14.55;90.49;102285.94;5015908;28;20188;-50
2022/09/05 03:45:16;;;;;;;2.72;1.65;;;;;;;14.51;90.12;102286.06;5017247;28;20405;-51
2022/09/05 03:48:00;;;;;;;4.32;2.03;;;;;;;14.51;89.99;102278.84;5020990;28;20202;-53
2022/09/05 03:50:44;;;;;;;3.05;1.88;;;;;;;14.55;89.68;102285.06;5018114;28;20230;-52
2022/09/05 03:53:37;;;;;;;3.10;2.00;;;;;;;14.56;89.34;102286.81;5020047;28;20242;-51
2022/09/05 03:56:27;;;;;;;4.53;2.20;;;;;;;14.56;89.00;102292.22;5023028;28;20243;-52
2022/09/05 03:59:30;;;;;;;5.45;2.10;;;;;;;14.50;88.69;102287.88;5019371;28;20618;-52
2022/09/05 04:02:03;;;;;;;2.58;2.30;;;;;;;14.53;88.55;102290.47;5018719;28;20184;-51
2022/09/05 04:04:41;;;;;;;2.17;1.83;;;;;;;14.54;88.41;102286.88;5014732;28;20668;-52
2022/09/05 04:07:31;;;;;;;4.35;2.20;;;;;;;14.54;88.08;102283.25;5015008;28;20215;-52
2022/09/05 04:10:04;;;;;;;5.85;2.10;;;;;;;14.51;87.75;102291.47;5013954;28;20322;-53
2022/09/05 04:12:57;;;;;;;4.40;1.95;;;;;;;14.59;87.43;102286.75;5027308;28;20251;-52
2022/09/05 04:15:45;;;;;;;6.00;2.53;;;;;;;14.55;86.92;102283.25;5015555;28;20188;-51
2022/09/05 04:18:41;;;;;;;6.97;2.05;;;;;;;14.55;86.75;102287.78;5014493;28;20276;-51
2022/09/05 04:21:15;;;;;;;4.40;2.20;;;;;;;14.56;86.54;102276.03;4989001;28;20196;-52
2022/09/05 04:23:47;;;;;;;4.22;2.40;;;;;;;14.56;86.53;102285.03;5011687;28;20746;-53
2022/09/05 04:26:45;;;;;;;3.42;2.40;;;;;;;14.56;86.47;102281.44;5010192;28;20244;-54
2022/09/05 04:29:24;;;;;;;4.38;2.42;;;;;;;14.51;86.21;102286.94;5013560;28;20211;-51
2022/09/05 04:31:54;;;;;;;2.58;2.38;;;;;;;14.51;86.09;102292.34;5009639;28;20203;-53
2022/09/05 04:34:39;;;;;;;2.40;2.20;;;;;;;14.53;86.06;102292.31;5009706;28;20216;-52
2022/09/05 04:37:07;;;;;;;5.25;2.58;;;;;;;14.51;85.96;102288.75;5009164;28;20323;-54
2022/09/05 04:39:34;;;;;;;3.95;2.38;;;;;;;14.45;85.91;102292.53;5018230;28;20188;-52
2022/09/05 04:42:23;;;;;;;2.65;2.28;;;;;;;14.55;85.62;102296.75;5018908;28;20188;-54
2022/09/05 04:45:05;;;;;;;4.18;2.25;;;;;;;14.61;85.26;102292.97;5020436;28;20548;-53
2022/09/05 04:47:43;;;;;;;2.95;2.50;;;;;;;14.63;84.84;102293.81;5011834;28;20679;-52
2022/09/05 04:50:15;;;;;;;3.95;2.28;;;;;;;14.60;84.60;102296.59;5023577;28;20188;-53
2022/09/05 04:53:18;;;;;;;3.25;2.38;;;;;;;14.66;84.70;102299.09;5022651;28;20196;-51
2022/09/05 04:55:50;;;;;;;4.15;2.63;;;;;;;14.67;84.20;102311.69;5013510;28;20224;-51
2022/09/05 04:58:28;;;;;;;6.22;2.65;;;;;;;14.72;84.04;102307.00;5014579;28;20275;-52
2022/09/05 05:01:05;;;;;;;3.40;2.30;;;;;;;14.84;83.58;102305.72;5012610;28;20184;-52
2022/09/05 05:03:33;;;;;;;3.35;2.13;;;;;;;14.89;83.32;102310.97;5015259;28;20584;-52
2022/09/05 05:06:07;;;;;;;3.05;2.42;;;;;;;15.02;82.80;102313.22;5016720;28;20216;-52
2022/09/05 05:08:49;;;;;;;9.60;2.85;;;;;;;14.91;82.79;102312.69;5022226;28;20390;-52
2022/09/05 05:11:21;;;;;;;5.45;2.78;;;;;;;14.96;82.81;102316.13;5022499;28;20845;-50
2022/09/05 05:13:57;;;;;;;3.50;2.58;;;;;;;15.03;82.74;102317.69;5023386;28;20181;-51
2022/09/05 05:16:26;;;;;;;4.22;2.50;;;;;;;15.19;82.27;102311.75;5021811;28;20699;-52
2022/09/05 05:19:00;;;;;;;2.97;2.67;;;;;;;15.42;81.68;102309.16;5018639;28;20283;-52
2022/09/05 05:21:29;;;;;;;4.95;2.97;;;;;;;15.62;81.11;102299.47;5016475;28;20238;-52
2022/09/05 05:24:11;;;;;;;6.20;3.10;;;;;;;15.92;80.08;102305.63;5016879;28;20661;-52
2022/09/05 05:27:29;;;;;;;2.60;2.17;;;;;;;15.95;79.68;102300.09;5016443;28;20326;-53
2022/09/05 05:30:05;;;;;;;2.45;2.25;;;;;;;16.09;79.68;102318.47;4991361;28;20200;-52
2022/09/05 05:32:51;;;;;;;4.43;2.63;;;;;;;16.19;79.40;102311.81;5019718;28;20215;-54
2022/09/05 05:35:24;;;;;;;4.18;2.70;;;;;;;16.18;78.82;102310.06;5023384;28;20527;-52
2022/09/05 05:38:23;;;;;;;3.00;2.70;;;;;;;16.24;78.96;102312.50;5023217;28;20196;-51
2022/09/05 05:40:54;;;;;;;3.03;2.40;;;;;;;16.27;78.96;102311.53;5033773;28;20188;-52
2022/09/05 05:43:25;;;;;;;2.35;2.15;;;;;;;16.20;78.94;102315.38;5013902;28;20675;-52
2022/09/05 05:45:59;;;;;;;4.28;2.40;;;;;;;16.26;79.02;102317.84;5013581;28;20224;-53
2022/09/05 05:48:36;;;;;;;2.63;2.42;;;;;;;16.21;78.87;102323.44;5035746;28;20215;-53
2022/09/05 05:51:25;;;;;;;4.32;2.58;;;;;;;16.40;78.34;102326.34;5013525;28;20180;-53
2022/09/05 05:53:57;;;;;;;4.03;2.58;;;;;;;16.50;77.99;102320.56;5011841;28;20184;-53
2022/09/05 05:56:41;;;;;;;4.68;2.78;;;;;;;16.40;77.96;102318.22;5012470;28;20215;-52
2022/09/05 05:59:41;;;;;;;3.15;2.78;;;;;;;16.62;77.69;102320.09;5024889;28;20191;-52
2022/09/05 06:02:26;;;;;;;3.42;2.63;;;;;;;16.53;77.47;102331.25;5027241;28;20541;-52
2022/09/05 06:05:01;;;;;;;3.70;2.63;;;;;;;16.71;77.13;102329.66;5027697;28;20224;-52
2022/09/05 06:07:44;;;;;;;3.78;2.35;;;;;;;16.66;77.03;102329.81;5021882;28;20211;-52
2022/09/05 06:10:45;;;;;;;4.07;2.53;;;;;;;16.56;76.81;102332.03;5018035;28;20235;-52
2022/09/05 06:13:27;;;;;;;4.38;2.58;;;;;;;16.67;77.25;102329.75;4989001;28;20200;-52
2022/09/05 06:16:08;;;;;;;4.47;2.45;;;;;;;16.89;76.33;102329.81;5012719;28;20252;-49
2022/09/05 06:18:55;;;;;;;2.95;2.45;;;;;;;16.92;75.58;102342.34;5021886;28;20188;-49
2022/09/05 06:21:35;;;;;;;3.50;2.50;;;;;;;17.11;75.18;102347.88;5023324;28;20187;-49
2022/09/05 06:24:42;;;;;;;3.25;2.42;;;;;;;17.22;74.56;102351.03;5026977;28;20212;-50
2022/09/05 06:27:43;;;;;;;4.68;2.63;;;;;;;17.37;73.96;102341.38;5018573;28;20208;-48
2022/09/05 06:30:18;;;;;;;4.95;2.50;;;;;;;17.45;73.80;102346.47;5008829;28;20651;-51
2022/09/05 06:32:49;;;;;;;5.75;2.65;;;;;;;17.42;73.78;102352.00;5021374;28;20176;-49
2022/09/05 06:35:33;;;;;;;3.83;2.60;;;;;;;17.47;73.44;102344.56;5024340;28;20215;-53
2022/09/05 06:38:38;;;;;;;5.75;2.47;;;;;;;17.52;72.70;102347.09;5025956;28;20192;-48
2022/09/05 06:41:20;;;;;;;4.80;2.85;;;;;;;17.47;72.90;102355.41;5018544;28;20666;-49
2022/09/05 06:43:51;;;;;;;5.45;3.50;;;;;;;17.53;72.67;102354.25;5015801;28;20208;-48
2022/09/05 06:46:23;;;;;;;5.13;2.63;;;;;;;17.65;71.66;102351.91;5018134;28;20208;-53
2022/09/05 06:48:53;;;;;;;2.92;2.70;;;;;;;17.58;71.72;102361.25;5024436;28;20244;-49
2022/09/05 06:51:54;;;;;;;4.97;2.42;;;;;;;17.72;71.40;102360.66;5021758;28;20195;-48
2022/09/05 06:54:58;;;;;;;2.95;2.65;;;;;;;17.63;71.15;102361.94;5019031;28;20271;-54
2022/09/05 06:57:48;;;;;;;3.13;2.45;;;;;;;17.68;71.38;102359.91;5014726;28;20274;-55
2022/09/05 07:00:19;;;;;;;3.33;2.70;;;;;;;17.86;70.65;102369.09;5018886;28;20357;-50
2022/09/05 07:03:12;;;;;;;5.72;2.85;;;;;;;17.85;70.00;102366.44;5015739;28;20302;-48
2022/09/05 07:05:45;;;;;;;4.97;2.50;;;;;;;17.88;70.32;102374.44;5019833;28;20611;-48
2022/09/05 07:08:25;;;;;;;4.25;2.53;;;;;;;17.86;69.87;102373.63;5017362;28;20650;-49
2022/09/05 07:11:16;;;;;;;3.38;2.60;;;;;;;17.76;70.69;102374.97;5032011;28;20191;-50
2022/09/05 07:13:50;;;;;;;3.30;2.50;;;;;;;17.71;71.31;102383.31;5026516;28;20243;-47
2022/09/05 07:16:17;;;;;;;2.90;2.50;;;;;;;17.82;70.92;102381.03;5023385;28;20250;-48
2022/09/05 07:19:04;;;;;;;3.88;2.53;;;;;;;18.00;71.00;102386.59;5018716;28;20236;-53
2022/09/05 07:21:59;;;;;;;8.90;3.10;;;;;;;17.76;70.73;102381.25;5024621;28;20188;-53
2022/09/05 07:24:27;;;;;;;3.40;2.35;;;;;;;17.76;71.04;102386.69;5009882;28;20306;-50
2022/09/05 07:26:56;;;;;;;3.90;2.90;;;;;;;17.83;70.62;102385.50;5023504;28;20212;-51
2022/09/05 07:29:42;;;;;;;5.72;2.83;;;;;;;17.76;71.07;102383.97;5019866;28;20180;-49
2022/09/05 07:32:13;;;;;;;7.15;2.95;;;;;;;17.75;71.39;102390.31;5020274;28;20183;-48
2022/09/05 07:34:42;;;;;;;3.60;2.38;;;;;;;17.94;71.75;102393.16;5018082;28;20186;-50
2022/09/05 07:37:20;;;;;;;5.80;2.78;;;;;;;17.97;70.97;102398.44;5016439;28;20578;-49
2022/09/05 07:39:59;;;;;;;5.97;2.63;;;;;;;18.09;70.60;102394.31;5020357;28;20176;-47
2022/09/05 07:42:35;;;;;;;4.53;2.58;;;;;;;18.24;70.47;102398.16;5020589;28;20204;-49
2022/09/05 07:45:09;;;;;;;6.63;2.58;;;;;;;18.32;69.79;102409.53;5016861;28;20196;-47
2022/09/05 07:47:54;;;;;;;3.15;2.42;;;;;;;18.43;69.20;102400.91;5012920;28;20304;-50
2022/09/05 07:50:20;;;;;;;3.33;2.53;;;;;;;18.29;69.23;102402.41;5020440;28;20175;-49
2022/09/05 07:52:48;;;;;;;3.75;2.53;;;;;;;18.50;69.18;102388.81;5016118;28;20207;-53
2022/09/05 07:55:30;;;;;;;3.03;2.40;;;;;;;18.68;68.62;102387.94;5019846;28;20200;-49
2022/09/05 07:58:00;;;;;;;3.50;2.47;;;;;;;18.65;68.22;102388.09;5016434;28;20187;-49
2022/09/05 08:00:28;;;;;;;6.90;2.60;;;;;;;18.71;68.49;102393.22;5015632;28;20715;-48
2022/09/05 08:02:54;;;;;;;4.78;2.92;;;;;;;18.66;68.08;102398.00;5020617;28;20311;-49
2022/09/05 08:05:22;;;;;;;4.95;2.15;;;;;;;18.66;68.26;102408.84;5018335;28;20196;-45
2022/09/05 08:07:55;;;;;;;2.00;1.90;;;;;;;18.85;68.21;102410.75;5019661;28;20263;-49
2022/09/05 08:10:30;;;;;;;5.88;2.30;;;;;;;18.77;68.21;102408.34;5021952;28;20192;-46
2022/09/05 08:13:03;;;;;;;7.57;2.50;;;;;;;18.65;67.90;102407.13;5019690;28;20253;-46
2022/09/05 08:15:29;;;;;;;5.18;2.50;;;;;;;18.81;68.34;102414.56;5015934;28;20514;-48
2022/09/05 08:18:15;;;;;;;3.22;2.53;;;;;;;18.81;68.09;102404.56;5015967;28;20307;-48
2022/09/05 08:20:43;;;;;;;3.10;2.50;;;;;;;18.94;67.66;102402.16;5017392;28;20202;-46
2022/09/05 08:23:18;;;;;;;6.35;2.60;;;;;;;19.09;66.83;102401.41;5013688;28;20256;-48
2022/09/05 08:26:07;;;;;;;5.57;2.33;;;;;;;19.40;65.58;102408.03;5020658;28;20314;-47
2022/09/05 08:28:32;;;;;;;3.40;2.22;;;;;;;19.51;64.91;102394.78;5012776;28;20188;-48
2022/09/05 08:31:05;;;;;;;4.03;2.00;;;;;;;19.78;65.22;102388.91;5025724;28;20245;-48
2022/09/05 08:33:33;;;;;;;6.28;2.50;;;;;;;19.75;65.18;102394.50;5017489;28;20176;-48
2022/09/05 08:36:07;;;;;;;7.53;2.47;;;;;;;19.83;65.35;102385.94;5013846;28;20216;-50
2022/09/05 08:38:35;;;;;;;3.25;2.35;;;;;;;19.84;64.42;102379.56;5017503;28;20601;-47
2022/09/05 08:41:25;;;;;;;5.65;2.35;;;;;;;19.78;64.93;102388.91;5018550;28;20191;-47
2022/09/05 08:44:05;;;;;;;3.90;2.10;;;;;;;20.02;63.82;102386.72;5024456;28;20663;-47
2022/09/05 08:46:56;;;;;;;4.22;2.28;;;;;;;20.14;62.80;102377.91;5005091;23;20239;-50
2022/09/05 08:49:44;;;;;;;3.33;2.20;;;;;;;20.31;62.39;102384.25;5000819;28;20207;-51
2022/09/05 08:52:45;;;;;;;3.35;1.70;;;;;;;20.86;61.64;102375.78;5004546;28;20264;-51
2022/09/05 08:55:19;;;;;;;3.17;2.13;;;;;;;20.88;61.29;102376.59;5007677;28;20200;-52
2022/09/05 08:57:45;;;;;;;4.47;2.20;;;;;;;20.78;61.15;102378.06;5004947;28;20235;-50
2022/09/05 09:00:14;;;;;;;3.92;2.20;;;;;;;20.99;61.03;102374.13;5004579;28;20256;-51
2022/09/05 09:03:05;;;;;;;3.67;2.15;;;;;;;21.32;60.97;102380.44;4993853;28;20188;-51
2022/09/05 09:05:30;;;;;;;6.00;2.10;;;;;;;21.55;60.63;102373.63;4999367;28;20331;-51
2022/09/05 09:08:18;;;;;;;4.13;2.17;;;;;;;21.69;60.10;102372.78;4998685;28;20384;-51
2022/09/05 09:10:56;;;;;;;3.33;1.80;;;;;;;21.89;59.44;102366.13;5000014;28;20196;-52
2022/09/05 09:13:51;;;;;;;2.22;1.75;;;;;;;21.68;58.41;102360.13;5000900;28;20267;-51
2022/09/05 09:16:35;;;;;;;2.53;1.80;;;;;;;21.81;58.39;102364.72;5001848;28;20204;-51
2022/09/05 09:19:20;;;;;;;5.63;1.95;;;;;;;21.85;58.30;102370.00;5002547;28;20208;-51
2022/09/05 09:21:54;;;;;;;2.28;1.95;;;;;;;22.34;57.90;102369.69;5000202;28;20181;-51
2022/09/05 09:24:40;;;;;;;2.47;1.70;;;;;;;22.50;56.89;102358.66;5000873;28;20749;-52
2022/09/05 09:27:21;;;;;;;2.00;1.90;;;;;;;22.83;56.54;102361.06;4995509;28;20212;-51
2022/09/05 09:29:50;;;;;;;3.22;1.83;;;;;;;22.16;55.73;102355.31;4997487;28;20188;-51
2022/09/05 09:32:23;;;;;;;4.18;2.00;;;;;;;22.52;55.79;102359.44;4997474;28;20184;-51
2022/09/05 09:34:57;;;;;;;3.65;1.80;;;;;;;22.57;55.70;102360.03;4996167;28;20188;-51
2022/09/05 09:37:49;;;;;;;2.53;1.98;;;;;;;22.28;55.52;102360.06;4979043;28;20310;-50
2022/09/05 09:40:17;;;;;;;4.82;2.03;;;;;;;22.01;56.19;102357.16;4995272;28;20670;-48
2022/09/05 09:43:13;;;;;;;3.47;1.90;;;;;;;21.94;55.49;102351.22;5005246;28;20627;-46
2022/09/05 09:45:52;;;;;;;4.43;1.83;;;;;;;21.97;55.61;102363.78;4999122;28;20227;-46
2022/09/05 09:48:35;;;;;;;2.33;1.70;;;;;;;21.45;55.73;102354.22;4996166;28;20191;-48
2022/09/05 09:51:01;;;;;;;2.40;2.08;;;;;;;21.27;56.33;102363.44;4993570;28;20220;-48
2022/09/05 09:53:51;;;;;;;4.43;1.90;;;;;;;21.16;56.79;102351.31;4995122;28;20263;-48
2022/09/05 09:56:36;;;;;;;3.20;2.08;;;;;;;21.36;55.83;102360.16;4993708;28;20205;-49
2022/09/05 09:59:24;;;;;;;2.67;1.60;;;;;;;21.78;54.81;102351.28;5010117;28;20188;-48
2022/09/05 10:02:26;;;;;;;2.92;2.08;;;;;;;21.80;54.81;102346.63;5002566;28;20187;-51
2022/09/05 10:05:17;;;;;;;2.30;1.92;;;;;;;21.90;53.54;102346.91;5008964;28;20553;-49
2022/09/05 10:08:06;;;;;;;2.45;1.70;;;;;;;22.01;53.00;102348.97;5006106;28;20180;-49
2022/09/05 10:10:47;;;;;;;4.65;2.10;;;;;;;22.73;51.44;102348.97;4996781;28;20197;-51
2022/09/05 10:13:20;;;;;;;4.22;1.98;;;;;;;22.78;51.26;102349.53;5006426;28;20670;-49
2022/09/05 10:15:54;;;;;;;3.53;2.10;;;;;;;22.84;51.47;102346.41;4996618;28;20220;-48
2022/09/05 10:18:56;;;;;;;3.70;2.13;;;;;;;23.06;50.27;102350.50;4996658;28;20188;-51
2022/09/05 10:21:41;;;;;;;2.10;1.85;;;;;;;23.02;49.69;102352.53;4998890;28;20304;-51
2022/09/05 10:24:47;;;;;;;6.07;2.13;;;;;;;22.76;49.51;102338.75;4998637;28;20542;-49
2022/09/05 10:27:37;;;;;;;4.10;2.08;;;;;;;23.03;48.66;102354.31;4984682;28;20263;-48
2022/09/05 10:30:17;;;;;;;4.20;2.17;;;;;;;22.71;48.99;102340.00;5000957;28;20290;-48
2022/09/05 10:33:01;;;;;;;2.75;2.00;;;;;;;22.69;48.76;102339.22;4999697;28;20188;-50
2022/09/05 10:35:34;;;;;;;2.10;2.00;;;;;;;22.89;48.74;102337.91;4999643;28;20278;-49
2022/09/05 10:38:10;;;;;;;5.13;2.33;;;;;;;22.58;49.13;102335.34;5001599;28;20181;-49
2022/09/05 10:40:38;;;;;;;2.80;2.40;;;;;;;22.87;49.85;102329.84;4992068;28;20222;-49
2022/09/05 10:43:27;;;;;;;2.78;2.15;;;;;;;23.34;49.00;102320.28;4993526;28;20204;-49
2022/09/05 10:46:19;;;;;;;2.03;1.90;;;;;;;23.60;47.76;102315.75;4995754;28;20208;-47
2022/09/05 10:48:51;;;;;;;2.97;2.30;;;;;;;23.43;47.55;102313.31;4996431;28;20289;-49
2022/09/05 10:51:28;;;;;;;3.50;1.85;;;;;;;23.18;47.76;102314.13;4996243;28;20196;-47
2022/09/05 10:54:28;;;;;;;3.25;1.80;;;;;;;23.22;46.69;102307.44;4994457;28;20521;-48
2022/09/05 10:57:32;;;;;;;4.28;2.05;;;;;;;23.66;46.42;102306.25;4996516;28;20565;-50
2022/09/05 11:00:28;;;;;;;4.00;2.13;;;;;;;23.22;46.61;102301.97;4995995;28;20243;-49
2022/09/05 11:02:56;;;;;;;3.88;2.10;;;;;;;23.43;46.98;102322.38;4995058;28;20455;-50
2022/09/05 11:05:26;;;;;;;6.55;2.30;;;;;;;23.08;47.00;102300.19;4991538;28;20188;-51
2022/09/05 11:07:54;;;;;;;2.30;2.10;;;;;;;23.51;46.84;102308.19;4995772;28;20181;-47
2022/09/05 11:10:28;;;;;;;2.20;2.00;;;;;;;22.86;47.68;102305.31;5003867;28;20654;-46
2022/09/05 11:13:03;;;;;;;2.10;2.00;;;;;;;23.09;47.73;102314.72;5000172;28;20179;-45
2022/09/05 11:15:43;;;;;;;2.88;2.13;;;;;;;23.09;46.32;102315.63;4999126;28;20195;-45
2022/09/05 11:18:22;;;;;;;5.78;2.45;;;;;;;22.81;46.27;102303.78;4995404;28;20184;-48
2022/09/05 11:20:55;;;;;;;2.83;2.20;;;;;;;22.85;46.81;102304.47;5001096;28;20187;-45
2022/09/05 11:23:29;;;;;;;2.30;2.03;;;;;;;23.07;46.54;102316.69;4995077;28;20207;-44
2022/09/05 11:26:04;;;;;;;6.20;2.40;;;;;;;22.97;46.97;102305.47;4998903;28;20204;-45
2022/09/05 11:28:44;;;;;;;6.68;2.80;;;;;;;23.04;46.40;102294.03;5001731;28;20278;-47
2022/09/05 11:31:17;;;;;;;5.32;2.30;;;;;;;23.17;45.85;102301.41;4992703;28;20193;-45
2022/09/05 11:33:54;;;;;;;5.43;2.33;;;;;;;23.25;45.63;102296.31;4996236;28;20228;-46
2022/09/05 11:36:25;;;;;;;2.92;2.03;;;;;;;23.29;45.73;102300.59;4999597;28;20212;-44
2022/09/05 11:39:09;;;;;;;4.10;2.30;;;;;;;23.19;45.93;102297.59;5001397;28;20267;-47
2022/09/05 11:41:49;;;;;;;2.42;2.08;;;;;;;23.06;45.56;102312.22;5001171;28;20185;-46
2022/09/05 11:44:47;;;;;;;4.60;2.38;;;;;;;23.01;45.49;102299.72;5001369;28;20214;-45
2022/09/05 11:47:22;;;;;;;7.90;2.28;;;;;;;23.20;45.76;102295.75;4975902;28;20213;-47
2022/09/05 11:50:15;;;;;;;2.17;1.98;;;;;;;23.33;46.09;102296.66;4998156;28;20742;-43
2022/09/05 11:52:56;;;;;;;4.68;2.45;;;;;;;23.07;46.07;102297.56;4997871;28;20596;-45
2022/09/05 11:55:37;;;;;;;4.53;2.20;;;;;;;23.02;46.26;102286.94;5003170;28;20877;-47
2022/09/05 11:58:18;;;;;;;4.25;2.28;;;;;;;23.05;46.73;102284.00;4997979;28;20686;-48
2022/09/05 12:00:58;;;;;;;4.35;2.38;;;;;;;23.09;46.60;102282.81;5003291;28;20708;-46
2022/09/05 12:03:49;;;;;;;6.28;2.40;;;;;;;22.92;46.28;102289.41;5005014;28;20191;-45
2022/09/05 12:06:30;;;;;;;4.25;2.15;;;;;;;22.94;46.83;102281.97;4996032;28;20213;-46
2022/09/05 12:09:16;;;;;;;6.25;2.10;;;;;;;22.61;47.29;102277.78;4997856;28;20180;-47
2022/09/05 12:12:00;;;;;;;4.97;2.10;;;;;;;22.37;47.67;102282.13;5000580;28;20282;-45
2022/09/05 12:14:36;;;;;;;3.40;2.28;;;;;;;22.50;48.13;102280.34;4998806;28;20282;-44
2022/09/05 12:17:22;;;;;;;3.13;2.20;;;;;;;22.59;47.91;102277.00;4995512;28;20216;-45
2022/09/05 12:19:58;;;;;;;3.35;2.22;;;;;;;22.56;48.30;102270.84;4999093;28;20535;-46
2022/09/05 12:22:30;;;;;;;4.55;2.72;;;;;;;22.62;48.63;102279.50;5002226;28;20678;-46
2022/09/05 12:25:14;;;;;;;5.13;2.38;;;;;;;22.50;49.34;102268.53;4993016;28;20755;-46
2022/09/05 12:27:46;;;;;;;7.18;2.28;;;;;;;22.16;48.95;102271.56;4998261;28;20203;-47
2022/09/05 12:30:20;;;;;;;2.95;2.03;;;;;;;21.95;49.36;102292.03;4994336;28;20185;-45